sensor_id;sensor_type;location;lat;lon;timestamp;temperature;humidity
7399;DHT22;3740;50.700;7.184;2023-04-01T00:02:07;12.10;99.90
7399;DHT22;3740;50.700;7.184;2023-04-01T00:04:33;12.10;99.90
7399;DHT22;3740;50.700;7.184;2023-04-01T00:06:58;12.10;99.90
7399;DHT22;3740;50.700;7.184;2023-04-01T00:09:25;12.10;99.90
7399;DHT22;3740;50.700;7.184;2023-04-01T00:11:51;12.10;99.90
7399;DHT22;3740;50.700;7.184;2023-04-01T00:14:16;12.10;99.90
7399;DHT22;3740;50.700;7.184;2023-04-01T00:16:42;12.10;99.90
7399;DHT22;3740;50.700;7.184;2023-04-01T00:19:07;12.10;99.90
7399;DHT22;3740;50.700;7.184;2023-04-01T00:21:33;12.00;99.90
7399;DHT22;3740;50.700;7.184;2023-04-01T00:23:59;12.00;99.90
7399;DHT22;3740;50.700;7.184;2023-04-01T00:26:25;11.90;99.90
7399;DHT22;3740;50.700;7.184;2023-04-01T00:28:51;12.00;99.90
7399;DHT22;3740;50.700;7.184;2023-04-01T00:31:17;12.00;99.90
7399;DHT22;3740;50.700;7.184;2023-04-01T00:33:43;11.90;99.90
7399;DHT22;3740;50.700;7.184;2023-04-01T00:36:14;12.00;99.90
7399;DHT22;3740;50.700;7.184;2023-04-01T00:38:41;12.10;99.90
7399;DHT22;3740;50.700;7.184;2023-04-01T00:41:08;12.00;99.90
7399;DHT22;3740;50.700;7.184;2023-04-01T00:43:34;11.90;99.90
7399;DHT22;3740;50.700;7.184;2023-04-01T00:46:00;12.00;99.90
7399;DHT22;3740;50.700;7.184;2023-04-01T00:48:33;11.90;99.90
7399;DHT22;3740;50.700;7.184;2023-04-01T00:51:28;11.90;99.90
7399;DHT22;3740;50.700;7.184;2023-04-01T00:53:56;11.90;99.90
7399;DHT22;3740;50.700;7.184;2023-04-01T00:56:27;11.90;99.90
7399;DHT22;3740;50.700;7.184;2023-04-01T00:58:59;11.90;99.90
7399;DHT22;3740;50.700;7.184;2023-04-01T01:01:26;12.00;99.90
7399;DHT22;3740;50.700;7.184;2023-04-01T01:03:53;11.90;99.90
7399;DHT22;3740;50.700;7.184;2023-04-01T01:12:13;11.90;99.90
7399;DHT22;3740;50.700;7.184;2023-04-01T01:23:11;11.80;99.90
7399;DHT22;3740;50.700;7.184;2023-04-01T01:25:53;11.80;99.90
7399;DHT22;3740;50.700;7.184;2023-04-01T01:31:25;11.70;99.90
7399;DHT22;3740;50.700;7.184;2023-04-01T01:36:58;11.70;99.90
7399;DHT22;3740;50.700;7.184;2023-04-01T01:39:27;11.70;99.90
7399;DHT22;3740;50.700;7.184;2023-04-01T01:41:57;11.70;99.90
7399;DHT22;3740;50.700;7.184;2023-04-01T01:44:23;11.70;99.90
7399;DHT22;3740;50.700;7.184;2023-04-01T01:46:49;11.60;99.90
7399;DHT22;3740;50.700;7.184;2023-04-01T01:49:16;11.70;99.90
7399;DHT22;3740;50.700;7.184;2023-04-01T01:51:43;11.70;99.90
7399;DHT22;3740;50.700;7.184;2023-04-01T01:54:12;11.60;99.90
7399;DHT22;3740;50.700;7.184;2023-04-01T01:56:39;11.60;99.90
7399;DHT22;3740;50.700;7.184;2023-04-01T01:59:08;11.60;99.90
7399;DHT22;3740;50.700;7.184;2023-04-01T02:01:39;11.60;99.90
7399;DHT22;3740;50.700;7.184;2023-04-01T02:04:07;11.60;99.90
7399;DHT22;3740;50.700;7.184;2023-04-01T02:06:37;11.60;99.90
7399;DHT22;3740;50.700;7.184;2023-04-01T02:09:06;11.60;99.90
7399;DHT22;3740;50.700;7.184;2023-04-01T02:11:43;11.60;99.90
7399;DHT22;3740;50.700;7.184;2023-04-01T02:14:14;11.60;99.90
7399;DHT22;3740;50.700;7.184;2023-04-01T02:16:51;11.60;99.90
7399;DHT22;3740;50.700;7.184;2023-04-01T02:19:18;11.60;99.90
7399;DHT22;3740;50.700;7.184;2023-04-01T02:21:50;11.60;99.90
7399;DHT22;3740;50.700;7.184;2023-04-01T02:24:19;11.70;99.90
7399;DHT22;3740;50.700;7.184;2023-04-01T02:26:48;11.60;99.90
7399;DHT22;3740;50.700;7.184;2023-04-01T02:29:17;11.70;99.90
7399;DHT22;3740;50.700;7.184;2023-04-01T02:31:43;11.70;99.90
7399;DHT22;3740;50.700;7.184;2023-04-01T02:34:09;11.70;99.90
7399;DHT22;3740;50.700;7.184;2023-04-01T02:36:35;11.70;99.90
7399;DHT22;3740;50.700;7.184;2023-04-01T02:39:02;11.60;99.90
7399;DHT22;3740;50.700;7.184;2023-04-01T02:41:29;11.60;99.90
7399;DHT22;3740;50.700;7.184;2023-04-01T02:43:55;11.50;99.90
7399;DHT22;3740;50.700;7.184;2023-04-01T02:46:22;11.70;99.90
7399;DHT22;3740;50.700;7.184;2023-04-01T02:48:48;11.30;99.90
7399;DHT22;3740;50.700;7.184;2023-04-01T02:51:13;11.20;99.90
7399;DHT22;3740;50.700;7.184;2023-04-01T02:53:39;11.10;99.90
7399;DHT22;3740;50.700;7.184;2023-04-01T02:56:05;11.10;99.90
7399;DHT22;3740;50.700;7.184;2023-04-01T02:58:30;11.20;99.90
7399;DHT22;3740;50.700;7.184;2023-04-01T03:00:56;11.20;99.90
7399;DHT22;3740;50.700;7.184;2023-04-01T03:03:21;11.20;99.90
7399;DHT22;3740;50.700;7.184;2023-04-01T03:05:47;11.10;99.90
7399;DHT22;3740;50.700;7.184;2023-04-01T03:08:13;11.10;99.90
7399;DHT22;3740;50.700;7.184;2023-04-01T03:10:38;11.00;99.90
7399;DHT22;3740;50.700;7.184;2023-04-01T03:13:04;10.80;99.90
7399;DHT22;3740;50.700;7.184;2023-04-01T03:15:29;10.70;99.90
7399;DHT22;3740;50.700;7.184;2023-04-01T03:17:55;10.60;99.90
7399;DHT22;3740;50.700;7.184;2023-04-01T03:20:21;10.60;99.90
7399;DHT22;3740;50.700;7.184;2023-04-01T03:22:46;10.50;99.90
7399;DHT22;3740;50.700;7.184;2023-04-01T03:25:12;10.60;99.90
7399;DHT22;3740;50.700;7.184;2023-04-01T03:27:38;11.60;99.90
7399;DHT22;3740;50.700;7.184;2023-04-01T03:30:05;10.60;99.90
7399;DHT22;3740;50.700;7.184;2023-04-01T03:32:31;10.60;99.90
7399;DHT22;3740;50.700;7.184;2023-04-01T03:34:57;10.60;99.90
7399;DHT22;3740;50.700;7.184;2023-04-01T03:37:23;10.60;99.90
7399;DHT22;3740;50.700;7.184;2023-04-01T03:39:49;10.60;99.90
7399;DHT22;3740;50.700;7.184;2023-04-01T03:42:14;10.60;99.90
7399;DHT22;3740;50.700;7.184;2023-04-01T03:44:40;10.60;99.90
7399;DHT22;3740;50.700;7.184;2023-04-01T03:47:06;10.70;99.90
7399;DHT22;3740;50.700;7.184;2023-04-01T03:49:32;10.70;99.90
7399;DHT22;3740;50.700;7.184;2023-04-01T03:51:58;10.70;99.90
7399;DHT22;3740;50.700;7.184;2023-04-01T03:54:24;10.60;99.90
7399;DHT22;3740;50.700;7.184;2023-04-01T03:56:49;10.60;99.90
7399;DHT22;3740;50.700;7.184;2023-04-01T03:59:15;10.60;99.90
7399;DHT22;3740;50.700;7.184;2023-04-01T04:01:41;10.60;99.90
7399;DHT22;3740;50.700;7.184;2023-04-01T04:04:07;10.70;99.90
7399;DHT22;3740;50.700;7.184;2023-04-01T04:06:33;10.70;99.90
7399;DHT22;3740;50.700;7.184;2023-04-01T04:08:58;10.70;99.90
7399;DHT22;3740;50.700;7.184;2023-04-01T04:11:24;14.10;99.90
7399;DHT22;3740;50.700;7.184;2023-04-01T04:13:50;10.90;99.90
7399;DHT22;3740;50.700;7.184;2023-04-01T04:16:16;10.90;99.90
7399;DHT22;3740;50.700;7.184;2023-04-01T04:18:42;11.00;99.90
7399;DHT22;3740;50.700;7.184;2023-04-01T04:21:12;11.00;99.90
7399;DHT22;3740;50.700;7.184;2023-04-01T04:23:38;10.90;99.90
7399;DHT22;3740;50.700;7.184;2023-04-01T04:26:06;11.10;99.90
7399;DHT22;3740;50.700;7.184;2023-04-01T04:28:32;11.10;99.90
7399;DHT22;3740;50.700;7.184;2023-04-01T04:30:58;11.10;99.90
7399;DHT22;3740;50.700;7.184;2023-04-01T04:33:24;11.10;99.90
7399;DHT22;3740;50.700;7.184;2023-04-01T04:35:51;11.10;99.90
7399;DHT22;3740;50.700;7.184;2023-04-01T04:38:16;11.10;99.90
7399;DHT22;3740;50.700;7.184;2023-04-01T04:40:44;11.10;99.90
7399;DHT22;3740;50.700;7.184;2023-04-01T04:43:14;11.10;99.90
7399;DHT22;3740;50.700;7.184;2023-04-01T04:45:40;11.20;99.90
7399;DHT22;3740;50.700;7.184;2023-04-01T04:48:10;11.20;99.90
7399;DHT22;3740;50.700;7.184;2023-04-01T04:50:41;11.20;99.90
7399;DHT22;3740;50.700;7.184;2023-04-01T04:53:10;11.10;99.90
7399;DHT22;3740;50.700;7.184;2023-04-01T04:55:35;11.10;99.90
7399;DHT22;3740;50.700;7.184;2023-04-01T04:58:01;11.10;99.90
7399;DHT22;3740;50.700;7.184;2023-04-01T05:00:26;11.10;99.90
7399;DHT22;3740;50.700;7.184;2023-04-01T05:02:52;11.10;99.90
7399;DHT22;3740;50.700;7.184;2023-04-01T05:05:18;11.00;99.90
7399;DHT22;3740;50.700;7.184;2023-04-01T05:07:43;11.00;99.90
7399;DHT22;3740;50.700;7.184;2023-04-01T05:10:09;10.90;99.90
7399;DHT22;3740;50.700;7.184;2023-04-01T05:12:35;10.90;99.90
7399;DHT22;3740;50.700;7.184;2023-04-01T05:15:08;10.90;99.90
7399;DHT22;3740;50.700;7.184;2023-04-01T05:17:34;10.90;99.90
7399;DHT22;3740;50.700;7.184;2023-04-01T05:20:00;11.00;99.90
7399;DHT22;3740;50.700;7.184;2023-04-01T05:22:26;10.80;99.90
7399;DHT22;3740;50.700;7.184;2023-04-01T05:24:51;10.80;99.90
7399;DHT22;3740;50.700;7.184;2023-04-01T05:27:17;10.80;99.90
7399;DHT22;3740;50.700;7.184;2023-04-01T05:29:42;10.80;99.90
7399;DHT22;3740;50.700;7.184;2023-04-01T05:32:08;10.70;99.90
7399;DHT22;3740;50.700;7.184;2023-04-01T05:34:34;10.70;99.90
7399;DHT22;3740;50.700;7.184;2023-04-01T05:36:59;10.70;99.90
7399;DHT22;3740;50.700;7.184;2023-04-01T05:39:25;10.70;99.90
7399;DHT22;3740;50.700;7.184;2023-04-01T05:41:51;10.80;99.90
7399;DHT22;3740;50.700;7.184;2023-04-01T05:44:18;10.90;99.90
7399;DHT22;3740;50.700;7.184;2023-04-01T05:46:43;10.80;99.90
7399;DHT22;3740;50.700;7.184;2023-04-01T05:49:09;10.90;99.90
7399;DHT22;3740;50.700;7.184;2023-04-01T05:51:34;10.90;99.90
7399;DHT22;3740;50.700;7.184;2023-04-01T05:54:00;10.90;99.90
7399;DHT22;3740;50.700;7.184;2023-04-01T05:56:25;10.90;99.90
7399;DHT22;3740;50.700;7.184;2023-04-01T05:58:53;10.80;99.90
7399;DHT22;3740;50.700;7.184;2023-04-01T06:01:19;10.80;99.90
7399;DHT22;3740;50.700;7.184;2023-04-01T06:03:45;11.00;99.90
7399;DHT22;3740;50.700;7.184;2023-04-01T06:06:15;10.90;99.90
7399;DHT22;3740;50.700;7.184;2023-04-01T06:08:41;10.90;99.90
7399;DHT22;3740;50.700;7.184;2023-04-01T06:11:37;11.00;99.90
7399;DHT22;3740;50.700;7.184;2023-04-01T06:20:02;11.10;99.90
7399;DHT22;3740;50.700;7.184;2023-04-01T06:22:49;11.10;99.90
7399;DHT22;3740;50.700;7.184;2023-04-01T06:36:43;11.20;99.90
7399;DHT22;3740;50.700;7.184;2023-04-01T06:42:30;11.30;99.90
7399;DHT22;3740;50.700;7.184;2023-04-01T06:45:23;11.20;99.90
7399;DHT22;3740;50.700;7.184;2023-04-01T06:50:30;11.30;99.90
7399;DHT22;3740;50.700;7.184;2023-04-01T06:53:17;11.30;99.90
7399;DHT22;3740;50.700;7.184;2023-04-01T06:55:48;11.40;99.90
7399;DHT22;3740;50.700;7.184;2023-04-01T06:58:28;11.40;99.90
7399;DHT22;3740;50.700;7.184;2023-04-01T07:00:58;11.40;99.90
7399;DHT22;3740;50.700;7.184;2023-04-01T07:03:38;11.50;99.90
7399;DHT22;3740;50.700;7.184;2023-04-01T07:06:10;11.60;99.90
7399;DHT22;3740;50.700;7.184;2023-04-01T07:08:40;11.60;99.90
7399;DHT22;3740;50.700;7.184;2023-04-01T07:11:10;11.70;99.90
7399;DHT22;3740;50.700;7.184;2023-04-01T07:13:41;11.70;99.90
7399;DHT22;3740;50.700;7.184;2023-04-01T07:24:04;11.80;99.90
7399;DHT22;3740;50.700;7.184;2023-04-01T07:26:30;13.40;99.90
7399;DHT22;3740;50.700;7.184;2023-04-01T07:28:56;11.90;99.90
7399;DHT22;3740;50.700;7.184;2023-04-01T07:37:03;12.20;99.90
7399;DHT22;3740;50.700;7.184;2023-04-01T07:51:03;12.10;99.90
7399;DHT22;3740;50.700;7.184;2023-04-01T07:53:38;12.10;99.90
7399;DHT22;3740;50.700;7.184;2023-04-01T07:56:11;11.90;99.90
7399;DHT22;3740;50.700;7.184;2023-04-01T07:59:01;11.80;99.90
7399;DHT22;3740;50.700;7.184;2023-04-01T08:01:50;11.80;99.90
7399;DHT22;3740;50.700;7.184;2023-04-01T08:07:10;11.60;99.90
7399;DHT22;3740;50.700;7.184;2023-04-01T08:10:04;11.60;99.90
7399;DHT22;3740;50.700;7.184;2023-04-01T08:12:48;11.70;99.90
7399;DHT22;3740;50.700;7.184;2023-04-01T08:15:25;11.70;99.90
7399;DHT22;3740;50.700;7.184;2023-04-01T08:20:47;11.80;99.90
7399;DHT22;3740;50.700;7.184;2023-04-01T08:28:32;12.10;99.90
7399;DHT22;3740;50.700;7.184;2023-04-01T08:31:33;12.20;99.90
7399;DHT22;3740;50.700;7.184;2023-04-01T08:33:57;12.10;99.90
7399;DHT22;3740;50.700;7.184;2023-04-01T08:36:28;12.10;99.90
7399;DHT22;3740;50.700;7.184;2023-04-01T08:53:07;11.80;99.90
7399;DHT22;3740;50.700;7.184;2023-04-01T09:01:24;11.90;99.90
7399;DHT22;3740;50.700;7.184;2023-04-01T09:07:17;11.90;99.90
7399;DHT22;3740;50.700;7.184;2023-04-01T09:09:55;11.80;99.90
7399;DHT22;3740;50.700;7.184;2023-04-01T09:12:49;11.80;99.90
7399;DHT22;3740;50.700;7.184;2023-04-01T09:21:19;11.70;99.90
7399;DHT22;3740;50.700;7.184;2023-04-01T09:24:07;11.60;99.90
7399;DHT22;3740;50.700;7.184;2023-04-01T09:27:05;11.60;99.90
7399;DHT22;3740;50.700;7.184;2023-04-01T09:38:21;11.40;99.90
7399;DHT22;3740;50.700;7.184;2023-04-01T09:44:02;11.60;99.90
7399;DHT22;3740;50.700;7.184;2023-04-01T10:09:28;11.80;99.90
7399;DHT22;3740;50.700;7.184;2023-04-01T10:12:36;11.80;99.90
7399;DHT22;3740;50.700;7.184;2023-04-01T10:18:28;11.90;99.90
7399;DHT22;3740;50.700;7.184;2023-04-01T10:21:05;11.90;99.90
7399;DHT22;3740;50.700;7.184;2023-04-01T10:38:19;11.80;99.90
7399;DHT22;3740;50.700;7.184;2023-04-01T10:41:06;11.90;99.90
7399;DHT22;3740;50.700;7.184;2023-04-01T10:44:11;12.00;99.90
7399;DHT22;3740;50.700;7.184;2023-04-01T10:47:00;12.20;99.90
7399;DHT22;3740;50.700;7.184;2023-04-01T10:52:23;12.30;99.90
7399;DHT22;3740;50.700;7.184;2023-04-01T10:55:19;12.30;99.90
7399;DHT22;3740;50.700;7.184;2023-04-01T10:58:00;12.50;99.90
7399;DHT22;3740;50.700;7.184;2023-04-01T11:01:19;12.50;99.90
7399;DHT22;3740;50.700;7.184;2023-04-01T11:09:50;12.20;99.90
7399;DHT22;3740;50.700;7.184;2023-04-01T11:21:36;12.30;99.90
7399;DHT22;3740;50.700;7.184;2023-04-01T11:35:24;12.40;99.90
7399;DHT22;3740;50.700;7.184;2023-04-01T11:57:46;12.20;99.90
7399;DHT22;3740;50.700;7.184;2023-04-01T12:15:03;12.30;99.90
7399;DHT22;3740;50.700;7.184;2023-04-01T12:20:43;12.30;99.90
7399;DHT22;3740;50.700;7.184;2023-04-01T12:23:17;12.10;99.90
7399;DHT22;3740;50.700;7.184;2023-04-01T12:31:38;12.20;99.90
7399;DHT22;3740;50.700;7.184;2023-04-01T12:37:10;12.30;99.90
7399;DHT22;3740;50.700;7.184;2023-04-01T12:42:36;12.30;99.90
7399;DHT22;3740;50.700;7.184;2023-04-01T12:51:04;12.20;99.90
7399;DHT22;3740;50.700;7.184;2023-04-01T13:05:15;11.80;99.90
7399;DHT22;3740;50.700;7.184;2023-04-01T13:11:02;11.60;99.90
7399;DHT22;3740;50.700;7.184;2023-04-01T13:13:43;11.60;99.90
7399;DHT22;3740;50.700;7.184;2023-04-01T13:24:51;11.80;99.90
7399;DHT22;3740;50.700;7.184;2023-04-01T13:30:16;11.90;99.90
7399;DHT22;3740;50.700;7.184;2023-04-01T13:32:47;11.90;99.90
7399;DHT22;3740;50.700;7.184;2023-04-01T13:35:38;11.90;99.90
7399;DHT22;3740;50.700;7.184;2023-04-01T13:44:34;11.90;99.90
7399;DHT22;3740;50.700;7.184;2023-04-01T13:47:10;12.10;99.90
7399;DHT22;3740;50.700;7.184;2023-04-01T13:50:16;12.30;99.90
7399;DHT22;3740;50.700;7.184;2023-04-01T13:52:52;12.40;99.90
7399;DHT22;3740;50.700;7.184;2023-04-01T13:55:26;12.50;99.90
7399;DHT22;3740;50.700;7.184;2023-04-01T14:11:39;12.00;99.90
7399;DHT22;3740;50.700;7.184;2023-04-01T14:22:46;13.00;99.90
7399;DHT22;3740;50.700;7.184;2023-04-01T14:28:12;13.80;99.90
7399;DHT22;3740;50.700;7.184;2023-04-01T14:39:00;13.40;99.90
7399;DHT22;3740;50.700;7.184;2023-04-01T14:50:21;13.20;99.90
7399;DHT22;3740;50.700;7.184;2023-04-01T14:55:33;13.00;99.90
7399;DHT22;3740;50.700;7.184;2023-04-01T14:58:14;12.90;99.90
7399;DHT22;3740;50.700;7.184;2023-04-01T15:03:33;12.80;99.90
7399;DHT22;3740;50.700;7.184;2023-04-01T15:09:22;12.80;99.90
7399;DHT22;3740;50.700;7.184;2023-04-01T15:15:14;12.60;99.90
7399;DHT22;3740;50.700;7.184;2023-04-01T15:18:07;12.50;99.90
7399;DHT22;3740;50.700;7.184;2023-04-01T15:20:49;12.60;99.90
7399;DHT22;3740;50.700;7.184;2023-04-01T15:23:46;12.60;99.90
7399;DHT22;3740;50.700;7.184;2023-04-01T15:31:46;12.60;99.90
7399;DHT22;3740;50.700;7.184;2023-04-01T15:43:10;12.50;99.90
7399;DHT22;3740;50.700;7.184;2023-04-01T15:56:53;12.40;99.90
7399;DHT22;3740;50.700;7.184;2023-04-01T16:02:47;12.20;99.90
7399;DHT22;3740;50.700;7.184;2023-04-01T16:11:24;12.00;99.90
7399;DHT22;3740;50.700;7.184;2023-04-01T16:14:18;12.20;99.90
7399;DHT22;3740;50.700;7.184;2023-04-01T16:19:49;12.30;99.90
7399;DHT22;3740;50.700;7.184;2023-04-01T16:22:44;12.20;99.90
7399;DHT22;3740;50.700;7.184;2023-04-01T16:25:17;12.10;99.90
7399;DHT22;3740;50.700;7.184;2023-04-01T16:30:39;12.20;99.90
7399;DHT22;3740;50.700;7.184;2023-04-01T16:35:58;12.20;99.90
7399;DHT22;3740;50.700;7.184;2023-04-01T16:38:43;11.90;99.90
7399;DHT22;3740;50.700;7.184;2023-04-01T16:41:14;11.80;99.90
7399;DHT22;3740;50.700;7.184;2023-04-01T16:43:45;11.80;99.90
7399;DHT22;3740;50.700;7.184;2023-04-01T16:46:22;11.90;99.90
7399;DHT22;3740;50.700;7.184;2023-04-01T16:54:45;12.00;99.90
7399;DHT22;3740;50.700;7.184;2023-04-01T17:02:49;11.90;99.90
7399;DHT22;3740;50.700;7.184;2023-04-01T17:05:16;11.90;99.90
7399;DHT22;3740;50.700;7.184;2023-04-01T17:07:45;11.90;99.90
7399;DHT22;3740;50.700;7.184;2023-04-01T17:10:22;11.90;99.90
7399;DHT22;3740;50.700;7.184;2023-04-01T17:21:46;11.70;99.90
7399;DHT22;3740;50.700;7.184;2023-04-01T17:24:37;11.70;99.90
7399;DHT22;3740;50.700;7.184;2023-04-01T17:30:06;11.70;99.90
7399;DHT22;3740;50.700;7.184;2023-04-01T17:32:48;11.60;99.90
7399;DHT22;3740;50.700;7.184;2023-04-01T17:46:54;11.30;99.90
7399;DHT22;3740;50.700;7.184;2023-04-01T17:49:31;11.30;99.90
7399;DHT22;3740;50.700;7.184;2023-04-01T17:52:16;11.10;99.90
7399;DHT22;3740;50.700;7.184;2023-04-01T17:58:00;11.10;99.90
7399;DHT22;3740;50.700;7.184;2023-04-01T18:06:16;11.40;99.90
7399;DHT22;3740;50.700;7.184;2023-04-01T18:23:02;11.20;99.90
7399;DHT22;3740;50.700;7.184;2023-04-01T18:25:38;11.10;99.90
7399;DHT22;3740;50.700;7.184;2023-04-01T18:30:35;10.90;99.90
7399;DHT22;3740;50.700;7.184;2023-04-01T18:35:54;11.10;99.90
7399;DHT22;3740;50.700;7.184;2023-04-01T18:38:36;11.00;99.90
7399;DHT22;3740;50.700;7.184;2023-04-01T18:41:36;10.90;99.90
7399;DHT22;3740;50.700;7.184;2023-04-01T18:44:36;10.90;99.90
7399;DHT22;3740;50.700;7.184;2023-04-01T18:47:41;10.80;99.90
7399;DHT22;3740;50.700;7.184;2023-04-01T18:50:55;10.90;99.90
7399;DHT22;3740;50.700;7.184;2023-04-01T18:55:52;11.20;99.90
7399;DHT22;3740;50.700;7.184;2023-04-01T18:59:25;11.10;99.90
7399;DHT22;3740;50.700;7.184;2023-04-01T19:01:28;11.00;99.90
7399;DHT22;3740;50.700;7.184;2023-04-01T19:04:38;11.00;99.90
7399;DHT22;3740;50.700;7.184;2023-04-01T19:09:50;12.60;99.90
7399;DHT22;3740;50.700;7.184;2023-04-01T19:12:22;11.20;99.90
7399;DHT22;3740;50.700;7.184;2023-04-01T19:17:41;11.00;99.90
7399;DHT22;3740;50.700;7.184;2023-04-01T19:20:18;11.00;99.90
7399;DHT22;3740;50.700;7.184;2023-04-01T19:25:24;11.00;99.90
7399;DHT22;3740;50.700;7.184;2023-04-01T19:28:02;11.10;99.90
7399;DHT22;3740;50.700;7.184;2023-04-01T19:30:56;10.90;99.90
7399;DHT22;3740;50.700;7.184;2023-04-01T19:36:29;10.90;99.90
7399;DHT22;3740;50.700;7.184;2023-04-01T19:39:24;11.00;99.90
7399;DHT22;3740;50.700;7.184;2023-04-01T19:42:05;11.00;99.90
7399;DHT22;3740;50.700;7.184;2023-04-01T19:47:44;10.90;99.90
7399;DHT22;3740;50.700;7.184;2023-04-01T19:56:22;10.90;99.90
7399;DHT22;3740;50.700;7.184;2023-04-01T20:01:51;10.90;99.90
7399;DHT22;3740;50.700;7.184;2023-04-01T20:04:48;11.10;99.90
7399;DHT22;3740;50.700;7.184;2023-04-01T20:07:24;11.00;99.90
7399;DHT22;3740;50.700;7.184;2023-04-01T20:10:06;11.00;99.90
7399;DHT22;3740;50.700;7.184;2023-04-01T20:12:53;11.00;99.90
7399;DHT22;3740;50.700;7.184;2023-04-01T20:15:39;10.80;99.90
7399;DHT22;3740;50.700;7.184;2023-04-01T20:18:16;11.00;99.90
7399;DHT22;3740;50.700;7.184;2023-04-01T20:20:54;11.10;99.90
7399;DHT22;3740;50.700;7.184;2023-04-01T20:26:06;11.20;99.90
7399;DHT22;3740;50.700;7.184;2023-04-01T20:31:30;11.10;99.90
7399;DHT22;3740;50.700;7.184;2023-04-01T20:34:19;11.10;99.90
7399;DHT22;3740;50.700;7.184;2023-04-01T20:43:00;11.10;99.90
7399;DHT22;3740;50.700;7.184;2023-04-01T20:45:40;11.10;99.90
7399;DHT22;3740;50.700;7.184;2023-04-01T20:53:20;11.00;99.90
7399;DHT22;3740;50.700;7.184;2023-04-01T20:56:16;11.10;99.90
7399;DHT22;3740;50.700;7.184;2023-04-01T21:16:31;11.00;99.90
7399;DHT22;3740;50.700;7.184;2023-04-01T21:19:25;11.10;99.90
7399;DHT22;3740;50.700;7.184;2023-04-01T21:24:41;11.10;99.90
7399;DHT22;3740;50.700;7.184;2023-04-01T21:27:39;11.20;99.90
7399;DHT22;3740;50.700;7.184;2023-04-01T21:35:38;11.30;99.90
7399;DHT22;3740;50.700;7.184;2023-04-01T21:38:43;11.40;99.90
7399;DHT22;3740;50.700;7.184;2023-04-01T21:43:49;11.50;99.90
7399;DHT22;3740;50.700;7.184;2023-04-01T21:51:55;11.50;99.90
7399;DHT22;3740;50.700;7.184;2023-04-01T21:54:42;11.50;99.90
7399;DHT22;3740;50.700;7.184;2023-04-01T21:57:25;11.50;99.90
7399;DHT22;3740;50.700;7.184;2023-04-01T22:00:18;11.50;99.90
7399;DHT22;3740;50.700;7.184;2023-04-01T22:03:02;11.50;99.90
7399;DHT22;3740;50.700;7.184;2023-04-01T22:06:00;11.50;99.90
7399;DHT22;3740;50.700;7.184;2023-04-01T22:14:18;11.40;99.90
7399;DHT22;3740;50.700;7.184;2023-04-01T22:16:59;11.30;99.90
7399;DHT22;3740;50.700;7.184;2023-04-01T22:25:00;11.20;99.90
7399;DHT22;3740;50.700;7.184;2023-04-01T22:36:23;11.60;99.90
7399;DHT22;3740;50.700;7.184;2023-04-01T22:39:15;11.50;99.90
7399;DHT22;3740;50.700;7.184;2023-04-01T22:41:55;11.40;99.90
7399;DHT22;3740;50.700;7.184;2023-04-01T22:44:51;11.40;99.90
7399;DHT22;3740;50.700;7.184;2023-04-01T22:50:37;11.50;99.90
7399;DHT22;3740;50.700;7.184;2023-04-01T22:53:17;11.50;99.90
7399;DHT22;3740;50.700;7.184;2023-04-01T22:55:48;11.40;99.90
7399;DHT22;3740;50.700;7.184;2023-04-01T22:58:17;11.30;99.90
7399;DHT22;3740;50.700;7.184;2023-04-01T23:00:58;11.30;99.90
7399;DHT22;3740;50.700;7.184;2023-04-01T23:05:54;11.50;99.90
7399;DHT22;3740;50.700;7.184;2023-04-01T23:11:18;11.40;99.90
7399;DHT22;3740;50.700;7.184;2023-04-01T23:13:49;11.40;99.90
7399;DHT22;3740;50.700;7.184;2023-04-01T23:16:23;11.30;99.90
7399;DHT22;3740;50.700;7.184;2023-04-01T23:22:26;11.50;99.90
7399;DHT22;3740;50.700;7.184;2023-04-01T23:24:59;11.50;99.90
7399;DHT22;3740;50.700;7.184;2023-04-01T23:27:35;11.40;99.90
7399;DHT22;3740;50.700;7.184;2023-04-01T23:30:03;11.30;99.90
7399;DHT22;3740;50.700;7.184;2023-04-01T23:32:29;11.40;99.90
7399;DHT22;3740;50.700;7.184;2023-04-01T23:34:59;11.50;99.90
7399;DHT22;3740;50.700;7.184;2023-04-01T23:37:26;11.60;99.90
7399;DHT22;3740;50.700;7.184;2023-04-01T23:39:54;11.50;99.90
7399;DHT22;3740;50.700;7.184;2023-04-01T23:44:48;11.40;99.90
7399;DHT22;3740;50.700;7.184;2023-04-01T23:47:22;11.30;99.90
7399;DHT22;3740;50.700;7.184;2023-04-01T23:49:53;11.40;99.90
7399;DHT22;3740;50.700;7.184;2023-04-01T23:52:35;11.40;99.90
7399;DHT22;3740;50.700;7.184;2023-04-01T23:55:12;11.40;99.90
7399;DHT22;3740;50.700;7.184;2023-04-01T23:57:38;11.40;99.90
